sensor_id;sensor_type;location;lat;lon;timestamp;temperature;humidity
17174;DHT22;8702;48.130;-1.696;2024-01-15T00:01:47;5.80;99.90
17174;DHT22;8702;48.130;-1.696;2024-01-15T00:04:13;6.00;99.90
17174;DHT22;8702;48.130;-1.696;2024-01-15T00:06:40;5.90;99.90
17174;DHT22;8702;48.130;-1.696;2024-01-15T00:09:07;5.80;99.90
17174;DHT22;8702;48.130;-1.696;2024-01-15T00:11:34;5.80;99.90
17174;DHT22;8702;48.130;-1.696;2024-01-15T00:14:01;5.70;99.90
17174;DHT22;8702;48.130;-1.696;2024-01-15T00:16:28;5.80;99.90
17174;DHT22;8702;48.130;-1.696;2024-01-15T00:18:56;5.90;99.90
17174;DHT22;8702;48.130;-1.696;2024-01-15T00:21:23;6.00;99.90
17174;DHT22;8702;48.130;-1.696;2024-01-15T00:23:50;6.20;99.90
17174;DHT22;8702;48.130;-1.696;2024-01-15T00:26:17;6.00;99.90
17174;DHT22;8702;48.130;-1.696;2024-01-15T00:28:44;6.10;99.90
17174;DHT22;8702;48.130;-1.696;2024-01-15T00:31:10;6.10;99.90
17174;DHT22;8702;48.130;-1.696;2024-01-15T00:33:37;6.10;99.90
17174;DHT22;8702;48.130;-1.696;2024-01-15T00:36:06;6.00;99.90
17174;DHT22;8702;48.130;-1.696;2024-01-15T00:38:33;5.90;99.90
17174;DHT22;8702;48.130;-1.696;2024-01-15T00:41:00;5.80;99.90
17174;DHT22;8702;48.130;-1.696;2024-01-15T00:43:27;5.60;99.90
17174;DHT22;8702;48.130;-1.696;2024-01-15T00:45:54;5.80;99.90
17174;DHT22;8702;48.130;-1.696;2024-01-15T00:48:21;5.90;99.90
17174;DHT22;8702;48.130;-1.696;2024-01-15T00:50:47;6.00;99.90
17174;DHT22;8702;48.130;-1.696;2024-01-15T00:53:16;5.80;99.90
17174;DHT22;8702;48.130;-1.696;2024-01-15T00:55:42;5.80;99.90
17174;DHT22;8702;48.130;-1.696;2024-01-15T00:58:09;5.50;99.90
17174;DHT22;8702;48.130;-1.696;2024-01-15T01:00:36;5.50;99.90
17174;DHT22;8702;48.130;-1.696;2024-01-15T01:03:03;5.50;99.90
17174;DHT22;8702;48.130;-1.696;2024-01-15T01:05:30;5.50;99.90
17174;DHT22;8702;48.130;-1.696;2024-01-15T01:07:57;5.30;99.90
17174;DHT22;8702;48.130;-1.696;2024-01-15T01:10:25;5.30;99.90
17174;DHT22;8702;48.130;-1.696;2024-01-15T01:12:52;5.40;99.90
17174;DHT22;8702;48.130;-1.696;2024-01-15T01:15:19;5.40;99.90
17174;DHT22;8702;48.130;-1.696;2024-01-15T01:17:45;5.30;99.90
17174;DHT22;8702;48.130;-1.696;2024-01-15T01:20:12;5.50;99.90
17174;DHT22;8702;48.130;-1.696;2024-01-15T01:22:41;5.70;99.90
17174;DHT22;8702;48.130;-1.696;2024-01-15T01:25:08;5.80;99.90
17174;DHT22;8702;48.130;-1.696;2024-01-15T01:27:36;5.70;99.90
17174;DHT22;8702;48.130;-1.696;2024-01-15T01:30:04;5.80;99.90
17174;DHT22;8702;48.130;-1.696;2024-01-15T01:32:31;5.60;99.90
17174;DHT22;8702;48.130;-1.696;2024-01-15T01:34:58;5.70;99.90
17174;DHT22;8702;48.130;-1.696;2024-01-15T01:37:25;5.50;99.90
17174;DHT22;8702;48.130;-1.696;2024-01-15T01:39:52;5.70;99.90
17174;DHT22;8702;48.130;-1.696;2024-01-15T01:42:18;5.70;99.90
17174;DHT22;8702;48.130;-1.696;2024-01-15T01:44:47;5.50;99.90
17174;DHT22;8702;48.130;-1.696;2024-01-15T01:47:14;5.40;99.90
17174;DHT22;8702;48.130;-1.696;2024-01-15T01:49:42;5.40;99.90
17174;DHT22;8702;48.130;-1.696;2024-01-15T01:52:09;5.40;99.90
17174;DHT22;8702;48.130;-1.696;2024-01-15T01:54:37;5.50;99.90
17174;DHT22;8702;48.130;-1.696;2024-01-15T01:57:05;5.40;99.90
17174;DHT22;8702;48.130;-1.696;2024-01-15T01:59:34;5.50;99.90
17174;DHT22;8702;48.130;-1.696;2024-01-15T02:02:03;5.60;99.90
17174;DHT22;8702;48.130;-1.696;2024-01-15T02:04:31;5.50;99.90
17174;DHT22;8702;48.130;-1.696;2024-01-15T02:06:59;5.60;99.90
17174;DHT22;8702;48.130;-1.696;2024-01-15T02:09:26;5.50;99.90
17174;DHT22;8702;48.130;-1.696;2024-01-15T02:11:53;5.30;99.90
17174;DHT22;8702;48.130;-1.696;2024-01-15T02:14:20;5.40;99.90
17174;DHT22;8702;48.130;-1.696;2024-01-15T02:16:47;5.40;99.90
17174;DHT22;8702;48.130;-1.696;2024-01-15T02:19:16;5.50;99.90
17174;DHT22;8702;48.130;-1.696;2024-01-15T02:21:43;5.60;99.90
17174;DHT22;8702;48.130;-1.696;2024-01-15T02:24:12;5.60;99.90
17174;DHT22;8702;48.130;-1.696;2024-01-15T02:26:38;5.70;99.90
17174;DHT22;8702;48.130;-1.696;2024-01-15T02:29:07;5.70;99.90
17174;DHT22;8702;48.130;-1.696;2024-01-15T02:31:36;5.60;99.90
17174;DHT22;8702;48.130;-1.696;2024-01-15T02:34:02;5.40;99.90
17174;DHT22;8702;48.130;-1.696;2024-01-15T02:36:29;5.30;99.90
17174;DHT22;8702;48.130;-1.696;2024-01-15T02:38:56;5.40;99.90
17174;DHT22;8702;48.130;-1.696;2024-01-15T02:41:24;5.50;99.90
17174;DHT22;8702;48.130;-1.696;2024-01-15T02:43:51;5.70;99.90
17174;DHT22;8702;48.130;-1.696;2024-01-15T02:46:18;5.80;99.90
17174;DHT22;8702;48.130;-1.696;2024-01-15T02:48:45;5.70;99.90
17174;DHT22;8702;48.130;-1.696;2024-01-15T02:51:12;5.70;99.90
17174;DHT22;8702;48.130;-1.696;2024-01-15T02:53:39;5.80;99.90
17174;DHT22;8702;48.130;-1.696;2024-01-15T02:56:07;5.80;99.90
17174;DHT22;8702;48.130;-1.696;2024-01-15T02:58:35;5.70;99.90
17174;DHT22;8702;48.130;-1.696;2024-01-15T03:01:02;5.70;99.90
17174;DHT22;8702;48.130;-1.696;2024-01-15T03:03:29;5.70;99.90
17174;DHT22;8702;48.130;-1.696;2024-01-15T03:05:56;5.70;99.90
17174;DHT22;8702;48.130;-1.696;2024-01-15T03:08:22;5.70;99.90
17174;DHT22;8702;48.130;-1.696;2024-01-15T03:10:49;5.70;99.90
17174;DHT22;8702;48.130;-1.696;2024-01-15T03:13:16;5.70;99.90
17174;DHT22;8702;48.130;-1.696;2024-01-15T03:15:46;5.60;99.90
17174;DHT22;8702;48.130;-1.696;2024-01-15T03:18:13;5.50;99.90
17174;DHT22;8702;48.130;-1.696;2024-01-15T03:20:39;5.50;99.90
17174;DHT22;8702;48.130;-1.696;2024-01-15T03:23:06;5.60;99.90
17174;DHT22;8702;48.130;-1.696;2024-01-15T03:25:33;5.70;99.90
17174;DHT22;8702;48.130;-1.696;2024-01-15T03:28:00;5.70;99.90
17174;DHT22;8702;48.130;-1.696;2024-01-15T03:30:27;5.70;99.90
17174;DHT22;8702;48.130;-1.696;2024-01-15T03:32:55;5.80;99.90
17174;DHT22;8702;48.130;-1.696;2024-01-15T03:35:22;5.90;99.90
17174;DHT22;8702;48.130;-1.696;2024-01-15T03:37:49;6.00;99.90
17174;DHT22;8702;48.130;-1.696;2024-01-15T03:40:15;6.00;99.90
17174;DHT22;8702;48.130;-1.696;2024-01-15T03:42:42;6.00;99.90
17174;DHT22;8702;48.130;-1.696;2024-01-15T03:45:09;6.00;99.90
17174;DHT22;8702;48.130;-1.696;2024-01-15T03:47:36;6.10;99.90
17174;DHT22;8702;48.130;-1.696;2024-01-15T03:50:05;6.00;99.90
17174;DHT22;8702;48.130;-1.696;2024-01-15T03:52:32;6.10;99.90
17174;DHT22;8702;48.130;-1.696;2024-01-15T03:54:58;6.10;99.90
17174;DHT22;8702;48.130;-1.696;2024-01-15T03:57:25;6.20;99.90
17174;DHT22;8702;48.130;-1.696;2024-01-15T03:59:52;6.20;99.90
17174;DHT22;8702;48.130;-1.696;2024-01-15T04:02:19;6.30;99.90
17174;DHT22;8702;48.130;-1.696;2024-01-15T04:04:47;6.10;99.90
17174;DHT22;8702;48.130;-1.696;2024-01-15T04:07:16;6.00;99.90
17174;DHT22;8702;48.130;-1.696;2024-01-15T04:09:42;6.10;99.90
17174;DHT22;8702;48.130;-1.696;2024-01-15T04:12:09;6.20;99.90
17174;DHT22;8702;48.130;-1.696;2024-01-15T04:14:36;6.20;99.90
17174;DHT22;8702;48.130;-1.696;2024-01-15T04:17:03;6.20;99.90
17174;DHT22;8702;48.130;-1.696;2024-01-15T04:19:30;6.10;99.90
17174;DHT22;8702;48.130;-1.696;2024-01-15T04:21:57;6.10;99.90
17174;DHT22;8702;48.130;-1.696;2024-01-15T04:24:25;6.00;99.90
17174;DHT22;8702;48.130;-1.696;2024-01-15T04:26:52;5.80;99.90
17174;DHT22;8702;48.130;-1.696;2024-01-15T04:29:19;5.80;99.90
17174;DHT22;8702;48.130;-1.696;2024-01-15T04:31:45;5.70;99.90
17174;DHT22;8702;48.130;-1.696;2024-01-15T04:34:12;5.60;99.90
17174;DHT22;8702;48.130;-1.696;2024-01-15T04:36:39;5.40;99.90
17174;DHT22;8702;48.130;-1.696;2024-01-15T04:39:06;5.40;99.90
17174;DHT22;8702;48.130;-1.696;2024-01-15T04:41:35;5.60;99.90
17174;DHT22;8702;48.130;-1.696;2024-01-15T04:44:02;5.60;99.90
17174;DHT22;8702;48.130;-1.696;2024-01-15T04:46:28;5.40;99.90
17174;DHT22;8702;48.130;-1.696;2024-01-15T04:48:55;5.40;99.90
17174;DHT22;8702;48.130;-1.696;2024-01-15T04:51:22;5.50;99.90
17174;DHT22;8702;48.130;-1.696;2024-01-15T04:53:49;5.40;99.90
17174;DHT22;8702;48.130;-1.696;2024-01-15T04:56:16;5.50;99.90
17174;DHT22;8702;48.130;-1.696;2024-01-15T04:58:44;5.50;99.90
17174;DHT22;8702;48.130;-1.696;2024-01-15T05:01:11;5.50;99.90
17174;DHT22;8702;48.130;-1.696;2024-01-15T05:03:37;5.40;99.90
17174;DHT22;8702;48.130;-1.696;2024-01-15T05:06:05;5.40;99.90
17174;DHT22;8702;48.130;-1.696;2024-01-15T05:08:31;5.40;99.90
17174;DHT22;8702;48.130;-1.696;2024-01-15T05:10:58;5.40;99.90
17174;DHT22;8702;48.130;-1.696;2024-01-15T05:13:25;5.50;99.90
17174;DHT22;8702;48.130;-1.696;2024-01-15T05:15:53;5.60;99.90
17174;DHT22;8702;48.130;-1.696;2024-01-15T05:18:20;5.70;99.90
17174;DHT22;8702;48.130;-1.696;2024-01-15T05:20:47;5.60;99.90
17174;DHT22;8702;48.130;-1.696;2024-01-15T05:23:14;5.70;99.90
17174;DHT22;8702;48.130;-1.696;2024-01-15T05:25:41;5.70;99.90
17174;DHT22;8702;48.130;-1.696;2024-01-15T05:28:07;5.90;99.90
17174;DHT22;8702;48.130;-1.696;2024-01-15T05:30:34;6.00;99.90
17174;DHT22;8702;48.130;-1.696;2024-01-15T05:33:03;5.90;99.90
17174;DHT22;8702;48.130;-1.696;2024-01-15T05:35:30;5.90;99.90
17174;DHT22;8702;48.130;-1.696;2024-01-15T05:37:59;5.90;99.90
17174;DHT22;8702;48.130;-1.696;2024-01-15T05:40:26;5.90;99.90
17174;DHT22;8702;48.130;-1.696;2024-01-15T05:42:52;6.00;99.90
17174;DHT22;8702;48.130;-1.696;2024-01-15T05:45:19;5.90;99.90
17174;DHT22;8702;48.130;-1.696;2024-01-15T05:47:46;5.80;99.90
17174;DHT22;8702;48.130;-1.696;2024-01-15T05:50:14;5.90;99.90
17174;DHT22;8702;48.130;-1.696;2024-01-15T05:52:41;5.90;99.90
17174;DHT22;8702;48.130;-1.696;2024-01-15T05:55:08;5.90;99.90
17174;DHT22;8702;48.130;-1.696;2024-01-15T05:57:35;5.90;99.90
17174;DHT22;8702;48.130;-1.696;2024-01-15T06:00:03;6.00;99.90
17174;DHT22;8702;48.130;-1.696;2024-01-15T06:02:30;5.90;99.90
17174;DHT22;8702;48.130;-1.696;2024-01-15T06:04:57;5.90;99.90
17174;DHT22;8702;48.130;-1.696;2024-01-15T06:07:25;5.90;99.90
17174;DHT22;8702;48.130;-1.696;2024-01-15T06:09:52;6.00;99.90
17174;DHT22;8702;48.130;-1.696;2024-01-15T06:12:19;6.10;99.90
17174;DHT22;8702;48.130;-1.696;2024-01-15T06:14:46;6.10;99.90
17174;DHT22;8702;48.130;-1.696;2024-01-15T06:17:13;6.20;99.90
17174;DHT22;8702;48.130;-1.696;2024-01-15T06:19:39;6.20;99.90
17174;DHT22;8702;48.130;-1.696;2024-01-15T06:22:06;6.30;99.90
17174;DHT22;8702;48.130;-1.696;2024-01-15T06:24:34;6.30;99.90
17174;DHT22;8702;48.130;-1.696;2024-01-15T06:27:01;6.30;99.90
17174;DHT22;8702;48.130;-1.696;2024-01-15T06:29:28;6.00;99.90
17174;DHT22;8702;48.130;-1.696;2024-01-15T06:31:55;6.00;99.90
17174;DHT22;8702;48.130;-1.696;2024-01-15T06:34:22;6.00;99.90
17174;DHT22;8702;48.130;-1.696;2024-01-15T06:36:48;6.00;99.90
17174;DHT22;8702;48.130;-1.696;2024-01-15T06:39:15;6.10;99.90
17174;DHT22;8702;48.130;-1.696;2024-01-15T06:41:43;6.00;99.90
17174;DHT22;8702;48.130;-1.696;2024-01-15T06:44:10;5.80;99.90
17174;DHT22;8702;48.130;-1.696;2024-01-15T06:46:42;5.70;99.90
17174;DHT22;8702;48.130;-1.696;2024-01-15T06:49:09;5.80;99.90
17174;DHT22;8702;48.130;-1.696;2024-01-15T06:51:36;6.00;99.90
17174;DHT22;8702;48.130;-1.696;2024-01-15T06:54:03;6.00;99.90
17174;DHT22;8702;48.130;-1.696;2024-01-15T06:56:31;6.00;99.90
17174;DHT22;8702;48.130;-1.696;2024-01-15T06:58:59;6.10;99.90
17174;DHT22;8702;48.130;-1.696;2024-01-15T07:01:26;6.10;99.90
17174;DHT22;8702;48.130;-1.696;2024-01-15T07:03:53;6.20;99.90
17174;DHT22;8702;48.130;-1.696;2024-01-15T07:06:20;6.30;99.90
17174;DHT22;8702;48.130;-1.696;2024-01-15T07:08:47;6.30;99.90
17174;DHT22;8702;48.130;-1.696;2024-01-15T07:11:13;6.10;99.90
17174;DHT22;8702;48.130;-1.696;2024-01-15T07:13:40;5.90;99.90
17174;DHT22;8702;48.130;-1.696;2024-01-15T07:16:08;6.10;99.90
17174;DHT22;8702;48.130;-1.696;2024-01-15T07:18:35;5.90;99.90
17174;DHT22;8702;48.130;-1.696;2024-01-15T07:21:02;6.00;99.90
17174;DHT22;8702;48.130;-1.696;2024-01-15T07:23:31;6.20;99.90
17174;DHT22;8702;48.130;-1.696;2024-01-15T07:25:58;6.20;99.90
17174;DHT22;8702;48.130;-1.696;2024-01-15T07:28:24;6.30;99.90
17174;DHT22;8702;48.130;-1.696;2024-01-15T07:30:51;6.40;99.90
17174;DHT22;8702;48.130;-1.696;2024-01-15T07:33:19;6.30;99.90
17174;DHT22;8702;48.130;-1.696;2024-01-15T07:35:46;6.40;99.90
17174;DHT22;8702;48.130;-1.696;2024-01-15T07:38:13;6.40;99.90
17174;DHT22;8702;48.130;-1.696;2024-01-15T07:40:40;6.50;99.90
17174;DHT22;8702;48.130;-1.696;2024-01-15T07:43:07;6.50;99.90
17174;DHT22;8702;48.130;-1.696;2024-01-15T07:45:33;6.50;99.90
17174;DHT22;8702;48.130;-1.696;2024-01-15T07:48:00;6.10;99.90
17174;DHT22;8702;48.130;-1.696;2024-01-15T07:50:30;6.00;99.90
17174;DHT22;8702;48.130;-1.696;2024-01-15T07:52:57;6.00;99.90
17174;DHT22;8702;48.130;-1.696;2024-01-15T07:55:23;6.00;99.90
17174;DHT22;8702;48.130;-1.696;2024-01-15T07:57:50;5.90;99.90
17174;DHT22;8702;48.130;-1.696;2024-01-15T08:00:19;6.00;99.90
17174;DHT22;8702;48.130;-1.696;2024-01-15T08:02:46;6.20;99.90
17174;DHT22;8702;48.130;-1.696;2024-01-15T08:05:13;6.30;99.90
17174;DHT22;8702;48.130;-1.696;2024-01-15T08:07:41;6.40;99.90
17174;DHT22;8702;48.130;-1.696;2024-01-15T08:10:08;6.50;99.90
17174;DHT22;8702;48.130;-1.696;2024-01-15T08:12:35;6.50;99.90
17174;DHT22;8702;48.130;-1.696;2024-01-15T08:15:02;6.60;99.90
17174;DHT22;8702;48.130;-1.696;2024-01-15T08:17:30;6.60;99.90
17174;DHT22;8702;48.130;-1.696;2024-01-15T08:19:57;6.60;99.90
17174;DHT22;8702;48.130;-1.696;2024-01-15T08:22:25;6.60;99.90
17174;DHT22;8702;48.130;-1.696;2024-01-15T08:24:53;6.70;99.90
17174;DHT22;8702;48.130;-1.696;2024-01-15T08:27:20;6.60;99.90
17174;DHT22;8702;48.130;-1.696;2024-01-15T08:29:47;6.60;99.90
17174;DHT22;8702;48.130;-1.696;2024-01-15T08:32:14;6.60;99.90
17174;DHT22;8702;48.130;-1.696;2024-01-15T08:34:41;6.60;99.90
17174;DHT22;8702;48.130;-1.696;2024-01-15T08:37:08;6.70;99.90
17174;DHT22;8702;48.130;-1.696;2024-01-15T08:39:35;6.70;99.90
17174;DHT22;8702;48.130;-1.696;2024-01-15T08:42:05;6.70;99.90
17174;DHT22;8702;48.130;-1.696;2024-01-15T08:44:32;6.60;99.90
17174;DHT22;8702;48.130;-1.696;2024-01-15T08:46:59;6.70;99.90
17174;DHT22;8702;48.130;-1.696;2024-01-15T08:49:26;6.70;99.90
17174;DHT22;8702;48.130;-1.696;2024-01-15T08:51:53;6.70;99.90
17174;DHT22;8702;48.130;-1.696;2024-01-15T08:54:20;6.70;99.90
17174;DHT22;8702;48.130;-1.696;2024-01-15T08:56:46;6.40;99.90
17174;DHT22;8702;48.130;-1.696;2024-01-15T08:59:15;6.40;99.90
17174;DHT22;8702;48.130;-1.696;2024-01-15T09:01:41;6.50;99.90
17174;DHT22;8702;48.130;-1.696;2024-01-15T09:04:08;6.50;99.90
17174;DHT22;8702;48.130;-1.696;2024-01-15T09:06:35;6.50;99.90
17174;DHT22;8702;48.130;-1.696;2024-01-15T09:09:02;6.50;99.90
17174;DHT22;8702;48.130;-1.696;2024-01-15T09:11:30;6.40;99.90
17174;DHT22;8702;48.130;-1.696;2024-01-15T09:13:57;6.30;99.90
17174;DHT22;8702;48.130;-1.696;2024-01-15T09:16:25;6.30;99.90
17174;DHT22;8702;48.130;-1.696;2024-01-15T09:18:52;6.30;99.90
17174;DHT22;8702;48.130;-1.696;2024-01-15T09:21:20;6.40;99.90
17174;DHT22;8702;48.130;-1.696;2024-01-15T09:23:47;6.40;99.90
17174;DHT22;8702;48.130;-1.696;2024-01-15T09:26:13;6.40;99.90
17174;DHT22;8702;48.130;-1.696;2024-01-15T09:28:40;6.40;99.90
17174;DHT22;8702;48.130;-1.696;2024-01-15T09:31:07;6.40;99.90
17174;DHT22;8702;48.130;-1.696;2024-01-15T09:33:35;6.40;99.90
17174;DHT22;8702;48.130;-1.696;2024-01-15T09:36:03;6.50;99.90
17174;DHT22;8702;48.130;-1.696;2024-01-15T09:38:30;6.40;99.90
17174;DHT22;8702;48.130;-1.696;2024-01-15T09:40:58;6.40;99.90
17174;DHT22;8702;48.130;-1.696;2024-01-15T09:43:24;6.40;99.90
17174;DHT22;8702;48.130;-1.696;2024-01-15T09:45:52;6.40;99.90
17174;DHT22;8702;48.130;-1.696;2024-01-15T09:48:19;6.50;99.90
17174;DHT22;8702;48.130;-1.696;2024-01-15T09:50:47;6.60;99.90
17174;DHT22;8702;48.130;-1.696;2024-01-15T09:53:15;6.60;99.90
17174;DHT22;8702;48.130;-1.696;2024-01-15T09:55:42;6.60;99.90
17174;DHT22;8702;48.130;-1.696;2024-01-15T09:58:10;6.50;99.90
17174;DHT22;8702;48.130;-1.696;2024-01-15T10:00:38;6.60;99.90
17174;DHT22;8702;48.130;-1.696;2024-01-15T10:03:07;6.70;99.90
17174;DHT22;8702;48.130;-1.696;2024-01-15T10:05:36;6.80;99.90
17174;DHT22;8702;48.130;-1.696;2024-01-15T10:08:04;6.70;99.90
17174;DHT22;8702;48.130;-1.696;2024-01-15T10:10:31;6.70;99.90
17174;DHT22;8702;48.130;-1.696;2024-01-15T10:12:58;6.60;99.90
17174;DHT22;8702;48.130;-1.696;2024-01-15T10:15:25;6.70;99.90
17174;DHT22;8702;48.130;-1.696;2024-01-15T10:17:52;6.80;99.90
17174;DHT22;8702;48.130;-1.696;2024-01-15T10:20:20;6.80;99.90
17174;DHT22;8702;48.130;-1.696;2024-01-15T10:22:48;6.80;99.90
17174;DHT22;8702;48.130;-1.696;2024-01-15T10:25:18;6.70;99.90
17174;DHT22;8702;48.130;-1.696;2024-01-15T10:27:59;6.90;99.90
17174;DHT22;8702;48.130;-1.696;2024-01-15T10:30:26;7.00;99.90
17174;DHT22;8702;48.130;-1.696;2024-01-15T10:32:58;7.00;99.90
17174;DHT22;8702;48.130;-1.696;2024-01-15T10:35:27;6.80;99.90
17174;DHT22;8702;48.130;-1.696;2024-01-15T10:37:54;6.80;99.90
17174;DHT22;8702;48.130;-1.696;2024-01-15T10:40:23;6.90;99.90
17174;DHT22;8702;48.130;-1.696;2024-01-15T10:42:50;6.90;99.90
17174;DHT22;8702;48.130;-1.696;2024-01-15T10:45:17;7.00;99.90
17174;DHT22;8702;48.130;-1.696;2024-01-15T10:47:44;7.00;99.90
17174;DHT22;8702;48.130;-1.696;2024-01-15T10:50:11;7.10;99.90
17174;DHT22;8702;48.130;-1.696;2024-01-15T10:52:39;7.20;99.90
17174;DHT22;8702;48.130;-1.696;2024-01-15T10:55:08;7.10;99.90
17174;DHT22;8702;48.130;-1.696;2024-01-15T10:57:37;7.00;99.90
17174;DHT22;8702;48.130;-1.696;2024-01-15T11:00:05;6.90;99.90
17174;DHT22;8702;48.130;-1.696;2024-01-15T11:02:32;7.00;99.90
17174;DHT22;8702;48.130;-1.696;2024-01-15T11:05:01;7.00;99.90
17174;DHT22;8702;48.130;-1.696;2024-01-15T11:07:30;7.00;99.90
17174;DHT22;8702;48.130;-1.696;2024-01-15T11:09:57;7.20;99.90
17174;DHT22;8702;48.130;-1.696;2024-01-15T11:12:25;7.30;99.90
17174;DHT22;8702;48.130;-1.696;2024-01-15T11:15:01;7.40;99.90
17174;DHT22;8702;48.130;-1.696;2024-01-15T11:17:58;7.70;99.90
17174;DHT22;8702;48.130;-1.696;2024-01-15T11:20:26;7.60;99.90
17174;DHT22;8702;48.130;-1.696;2024-01-15T11:22:53;7.60;99.90
17174;DHT22;8702;48.130;-1.696;2024-01-15T11:25:22;7.60;99.90
17174;DHT22;8702;48.130;-1.696;2024-01-15T11:27:51;7.70;99.90
17174;DHT22;8702;48.130;-1.696;2024-01-15T11:30:20;7.80;99.90
17174;DHT22;8702;48.130;-1.696;2024-01-15T11:32:50;8.00;99.90
17174;DHT22;8702;48.130;-1.696;2024-01-15T11:35:17;8.00;99.90
17174;DHT22;8702;48.130;-1.696;2024-01-15T11:37:57;8.10;99.90
17174;DHT22;8702;48.130;-1.696;2024-01-15T11:40:37;8.10;99.90
17174;DHT22;8702;48.130;-1.696;2024-01-15T11:43:05;8.10;99.90
17174;DHT22;8702;48.130;-1.696;2024-01-15T11:45:33;7.90;99.90
17174;DHT22;8702;48.130;-1.696;2024-01-15T11:48:10;7.80;99.90
17174;DHT22;8702;48.130;-1.696;2024-01-15T11:50:40;8.00;99.90
17174;DHT22;8702;48.130;-1.696;2024-01-15T11:53:15;8.00;99.90
17174;DHT22;8702;48.130;-1.696;2024-01-15T11:55:44;7.90;99.90
17174;DHT22;8702;48.130;-1.696;2024-01-15T11:58:12;7.90;99.90
17174;DHT22;8702;48.130;-1.696;2024-01-15T12:00:47;7.80;99.90
17174;DHT22;8702;48.130;-1.696;2024-01-15T12:03:15;7.90;99.90
17174;DHT22;8702;48.130;-1.696;2024-01-15T12:05:42;7.70;99.90
17174;DHT22;8702;48.130;-1.696;2024-01-15T12:08:09;7.90;99.90
17174;DHT22;8702;48.130;-1.696;2024-01-15T12:10:37;8.00;99.90
17174;DHT22;8702;48.130;-1.696;2024-01-15T12:13:10;7.90;99.90
17174;DHT22;8702;48.130;-1.696;2024-01-15T12:15:37;7.80;99.90
17174;DHT22;8702;48.130;-1.696;2024-01-15T12:18:09;7.90;99.90
17174;DHT22;8702;48.130;-1.696;2024-01-15T12:20:36;7.80;99.90
17174;DHT22;8702;48.130;-1.696;2024-01-15T12:23:03;7.90;99.90
17174;DHT22;8702;48.130;-1.696;2024-01-15T12:25:31;8.00;99.90
17174;DHT22;8702;48.130;-1.696;2024-01-15T12:28:00;8.00;99.90
17174;DHT22;8702;48.130;-1.696;2024-01-15T12:30:27;8.00;99.90
17174;DHT22;8702;48.130;-1.696;2024-01-15T12:32:55;8.00;99.90
17174;DHT22;8702;48.130;-1.696;2024-01-15T12:35:24;8.10;99.90
17174;DHT22;8702;48.130;-1.696;2024-01-15T12:37:52;8.80;99.90
17174;DHT22;8702;48.130;-1.696;2024-01-15T12:40:19;8.10;99.90
17174;DHT22;8702;48.130;-1.696;2024-01-15T12:42:46;8.00;99.90
17174;DHT22;8702;48.130;-1.696;2024-01-15T12:45:13;7.90;99.90
17174;DHT22;8702;48.130;-1.696;2024-01-15T12:47:41;7.70;99.90
17174;DHT22;8702;48.130;-1.696;2024-01-15T12:50:09;7.70;99.90
17174;DHT22;8702;48.130;-1.696;2024-01-15T12:52:39;7.70;99.90
17174;DHT22;8702;48.130;-1.696;2024-01-15T12:55:07;7.90;99.90
17174;DHT22;8702;48.130;-1.696;2024-01-15T12:57:35;8.00;99.90
17174;DHT22;8702;48.130;-1.696;2024-01-15T13:00:02;8.10;99.90
17174;DHT22;8702;48.130;-1.696;2024-01-15T13:02:32;8.00;99.90
17174;DHT22;8702;48.130;-1.696;2024-01-15T13:04:59;7.90;99.90
17174;DHT22;8702;48.130;-1.696;2024-01-15T13:07:27;7.60;99.90
17174;DHT22;8702;48.130;-1.696;2024-01-15T13:09:55;7.60;99.90
17174;DHT22;8702;48.130;-1.696;2024-01-15T13:12:22;7.70;99.90
17174;DHT22;8702;48.130;-1.696;2024-01-15T13:14:49;7.70;99.90
17174;DHT22;8702;48.130;-1.696;2024-01-15T13:17:16;7.60;99.90
17174;DHT22;8702;48.130;-1.696;2024-01-15T13:19:43;7.70;99.90
17174;DHT22;8702;48.130;-1.696;2024-01-15T13:22:09;7.70;99.90
17174;DHT22;8702;48.130;-1.696;2024-01-15T13:24:39;7.90;99.90
17174;DHT22;8702;48.130;-1.696;2024-01-15T13:27:07;7.80;99.90
17174;DHT22;8702;48.130;-1.696;2024-01-15T13:29:34;7.80;99.90
17174;DHT22;8702;48.130;-1.696;2024-01-15T13:32:01;7.80;99.90
17174;DHT22;8702;48.130;-1.696;2024-01-15T13:34:28;7.90;99.90
17174;DHT22;8702;48.130;-1.696;2024-01-15T13:36:55;7.80;99.90
17174;DHT22;8702;48.130;-1.696;2024-01-15T13:39:22;7.80;99.90
17174;DHT22;8702;48.130;-1.696;2024-01-15T13:41:49;7.90;99.90
17174;DHT22;8702;48.130;-1.696;2024-01-15T13:44:18;8.00;99.90
17174;DHT22;8702;48.130;-1.696;2024-01-15T13:46:45;8.20;99.90
17174;DHT22;8702;48.130;-1.696;2024-01-15T13:49:12;8.20;99.90
17174;DHT22;8702;48.130;-1.696;2024-01-15T13:51:40;8.00;99.90
17174;DHT22;8702;48.130;-1.696;2024-01-15T13:54:07;7.90;99.90
17174;DHT22;8702;48.130;-1.696;2024-01-15T13:56:33;8.00;99.90
17174;DHT22;8702;48.130;-1.696;2024-01-15T13:59:01;8.00;99.90
17174;DHT22;8702;48.130;-1.696;2024-01-15T14:01:31;7.80;99.90
17174;DHT22;8702;48.130;-1.696;2024-01-15T14:03:58;7.80;99.90
17174;DHT22;8702;48.130;-1.696;2024-01-15T14:06:25;8.00;99.90
17174;DHT22;8702;48.130;-1.696;2024-01-15T14:08:52;7.90;99.90
17174;DHT22;8702;48.130;-1.696;2024-01-15T14:11:19;7.90;99.90
17174;DHT22;8702;48.130;-1.696;2024-01-15T14:13:46;7.90;99.90
17174;DHT22;8702;48.130;-1.696;2024-01-15T14:16:13;8.00;99.90
17174;DHT22;8702;48.130;-1.696;2024-01-15T14:18:41;8.10;99.90
17174;DHT22;8702;48.130;-1.696;2024-01-15T14:21:08;8.00;99.90
17174;DHT22;8702;48.130;-1.696;2024-01-15T14:23:35;7.90;99.90
17174;DHT22;8702;48.130;-1.696;2024-01-15T14:26:02;7.90;99.90
17174;DHT22;8702;48.130;-1.696;2024-01-15T14:28:29;7.80;99.90
17174;DHT22;8702;48.130;-1.696;2024-01-15T14:30:56;7.80;99.90
17174;DHT22;8702;48.130;-1.696;2024-01-15T14:33:25;7.80;99.90
17174;DHT22;8702;48.130;-1.696;2024-01-15T14:35:53;7.80;99.90
17174;DHT22;8702;48.130;-1.696;2024-01-15T14:38:21;7.70;99.90
17174;DHT22;8702;48.130;-1.696;2024-01-15T14:40:48;7.70;99.90
17174;DHT22;8702;48.130;-1.696;2024-01-15T14:43:15;7.70;99.90
17174;DHT22;8702;48.130;-1.696;2024-01-15T14:45:41;7.80;99.90
17174;DHT22;8702;48.130;-1.696;2024-01-15T14:48:09;7.80;99.90
17174;DHT22;8702;48.130;-1.696;2024-01-15T14:50:35;7.90;99.90
17174;DHT22;8702;48.130;-1.696;2024-01-15T14:53:04;7.80;99.90
17174;DHT22;8702;48.130;-1.696;2024-01-15T14:55:31;7.70;99.90
17174;DHT22;8702;48.130;-1.696;2024-01-15T14:57:57;7.90;99.90
17174;DHT22;8702;48.130;-1.696;2024-01-15T15:00:24;8.10;99.90
17174;DHT22;8702;48.130;-1.696;2024-01-15T15:02:51;8.00;99.90
17174;DHT22;8702;48.130;-1.696;2024-01-15T15:05:18;8.10;99.90
17174;DHT22;8702;48.130;-1.696;2024-01-15T15:07:45;8.10;99.90
17174;DHT22;8702;48.130;-1.696;2024-01-15T15:10:13;8.20;99.90
17174;DHT22;8702;48.130;-1.696;2024-01-15T15:12:40;8.30;99.90
17174;DHT22;8702;48.130;-1.696;2024-01-15T15:15:08;8.40;99.90
17174;DHT22;8702;48.130;-1.696;2024-01-15T15:17:36;8.40;99.90
17174;DHT22;8702;48.130;-1.696;2024-01-15T15:20:04;8.60;99.90
17174;DHT22;8702;48.130;-1.696;2024-01-15T15:22:31;8.70;99.90
17174;DHT22;8702;48.130;-1.696;2024-01-15T15:24:58;8.60;99.90
17174;DHT22;8702;48.130;-1.696;2024-01-15T15:27:26;8.90;99.90
17174;DHT22;8702;48.130;-1.696;2024-01-15T15:29:54;8.60;99.90
17174;DHT22;8702;48.130;-1.696;2024-01-15T15:32:21;9.00;99.90
17174;DHT22;8702;48.130;-1.696;2024-01-15T15:34:47;9.10;99.90
17174;DHT22;8702;48.130;-1.696;2024-01-15T15:37:14;9.10;99.90
17174;DHT22;8702;48.130;-1.696;2024-01-15T15:39:42;9.10;99.90
17174;DHT22;8702;48.130;-1.696;2024-01-15T15:42:09;9.10;99.90
17174;DHT22;8702;48.130;-1.696;2024-01-15T15:44:37;8.90;99.90
17174;DHT22;8702;48.130;-1.696;2024-01-15T15:47:09;9.00;99.90